Time;durP1;ratioP1;P1;durP2;ratioP2;P2;SDS_P1;SDS_P2;PMS_P1;PMS_P2;Temp;Humidity;BMP_temperature;BMP_pressure;BME280_temperature;BME280_humidity;BME280_pressure;Samples;Min_cycle;Max_cycle;Signal;HPM_P1;HPM_P2
2024/02/20 00:00:07;;;;;;;35.60;23.77;;;;;;;6.01;100.00;100915.42;1454941;88;22877;-78
2024/02/20 00:02:34;;;;;;;33.30;23.07;;;;;;;6.01;100.00;100906.22;1396262;87;21360;-78
2024/02/20 00:05:03;;;;;;;37.83;24.53;;;;;;;6.02;100.00;100907.92;1428079;87;22448;-79
2024/02/20 00:07:30;;;;;;;33.27;22.57;;;;;;;6.00;100.00;100907.17;1483025;87;22491;-79
2024/02/20 00:09:58;;;;;;;39.07;25.33;;;;;;;5.95;100.00;100908.80;1481839;87;21979;-79
2024/02/20 00:12:25;;;;;;;39.57;26.67;;;;;;;5.91;100.00;100909.94;1480243;88;21448;-79
2024/02/20 00:14:52;;;;;;;56.60;31.80;;;;;;;5.87;100.00;100908.00;1482519;87;22527;-78
2024/02/20 00:17:20;;;;;;;47.50;28.30;;;;;;;5.86;100.00;100914.18;1478254;88;21544;-79
2024/02/20 00:19:47;;;;;;;48.80;27.63;;;;;;;5.84;100.00;100922.66;1478176;88;21441;-79
2024/02/20 00:22:14;;;;;;;43.37;26.90;;;;;;;5.76;100.00;100926.28;1486545;87;21507;-79
2024/02/20 00:24:42;;;;;;;44.00;27.47;;;;;;;5.71;100.00;100934.94;1487907;87;21381;-79
2024/02/20 00:27:09;;;;;;;38.53;26.03;;;;;;;5.68;100.00;100935.15;1481634;87;22300;-79
2024/02/20 00:29:36;;;;;;;41.83;28.93;;;;;;;5.63;100.00;100935.45;1483001;88;21434;-79
2024/02/20 00:32:04;;;;;;;41.80;27.90;;;;;;;5.58;100.00;100936.25;1481926;87;21524;-79
2024/02/20 00:34:32;;;;;;;41.20;27.13;;;;;;;5.56;100.00;100934.67;1486683;88;21661;-79
2024/02/20 00:36:59;;;;;;;38.40;26.37;;;;;;;5.55;100.00;100932.97;1483876;87;22277;-79
2024/02/20 00:39:28;;;;;;;40.20;27.77;;;;;;;5.57;100.00;100937.65;1482885;87;21700;-79
2024/02/20 00:41:55;;;;;;;41.37;25.43;;;;;;;5.59;100.00;100929.20;1481723;87;21783;-79
2024/02/20 00:44:22;;;;;;;32.67;23.23;;;;;;;5.60;100.00;100939.59;1481146;87;21389;-79
2024/02/20 00:46:51;;;;;;;41.20;27.97;;;;;;;5.56;100.00;100939.92;1484557;87;21448;-78
2024/02/20 00:49:18;;;;;;;36.13;23.83;;;;;;;5.52;100.00;100939.73;1469988;88;21478;-78
2024/02/20 00:51:45;;;;;;;37.83;25.63;;;;;;;5.50;100.00;100939.02;1481226;87;21404;-78
2024/02/20 00:54:13;;;;;;;36.97;23.63;;;;;;;5.49;100.00;100937.31;1478593;87;22387;-78
2024/02/20 00:56:41;;;;;;;37.60;25.37;;;;;;;5.50;100.00;100933.77;1485921;87;21456;-79
2024/02/20 00:59:09;;;;;;;39.10;24.73;;;;;;;5.53;100.00;100930.94;1485932;87;21441;-78
2024/02/20 01:01:37;;;;;;;38.00;26.53;;;;;;;5.56;100.00;100923.69;1482483;87;21602;-77
2024/02/20 01:04:05;;;;;;;35.53;24.13;;;;;;;5.56;100.00;100932.05;1482464;87;21485;-79
2024/02/20 01:06:34;;;;;;;34.83;24.13;;;;;;;5.57;100.00;100924.52;1478326;87;21456;-79
2024/02/20 01:09:01;;;;;;;36.33;23.80;;;;;;;5.57;100.00;100929.77;1469409;87;21485;-79
2024/02/20 01:11:30;;;;;;;34.37;24.10;;;;;;;5.53;100.00;100925.69;1474447;87;21449;-79
2024/02/20 01:14:00;;;;;;;34.40;26.00;;;;;;;5.48;100.00;100934.33;1474930;88;22416;-79
2024/02/20 01:16:28;;;;;;;39.33;24.47;;;;;;;5.42;100.00;100927.70;1476662;87;21680;-79
2024/02/20 01:18:56;;;;;;;36.07;23.83;;;;;;;5.37;100.00;100925.37;1478940;88;22372;-79
2024/02/20 01:21:23;;;;;;;36.10;22.97;;;;;;;5.35;100.00;100922.03;1470698;87;22329;-79
2024/02/20 01:23:52;;;;;;;35.67;23.97;;;;;;;5.37;100.00;100913.56;1463390;88;21515;-79
2024/02/20 01:26:20;;;;;;;37.43;23.27;;;;;;;5.40;100.00;100914.67;1473696;87;21412;-79
2024/02/20 01:28:47;;;;;;;39.10;22.67;;;;;;;5.43;100.00;100899.19;1477677;88;23085;-79
2024/02/20 01:31:16;;;;;;;36.87;24.67;;;;;;;5.47;100.00;100897.19;1475180;87;21454;-78
2024/02/20 01:33:43;;;;;;;37.80;24.90;;;;;;;5.49;100.00;100884.81;1471422;87;21456;-80
2024/02/20 01:36:10;;;;;;;38.87;25.97;;;;;;;5.49;100.00;100884.81;1472509;87;21463;-80
2024/02/20 01:38:37;;;;;;;44.10;26.57;;;;;;;5.50;100.00;100891.77;1474275;88;21463;-79
2024/02/20 01:41:04;;;;;;;40.70;25.40;;;;;;;5.49;100.00;100884.33;1475957;87;22446;-79
2024/02/20 01:43:31;;;;;;;38.97;24.60;;;;;;;5.47;100.00;100895.44;1478665;87;21456;-78
2024/02/20 01:45:59;;;;;;;35.20;24.80;;;;;;;5.48;100.00;100884.45;1468614;88;21463;-79
2024/02/20 01:48:26;;;;;;;38.20;23.63;;;;;;;5.50;100.00;100881.27;1470571;87;22004;-80
2024/02/20 01:50:53;;;;;;;36.03;23.97;;;;;;;5.51;100.00;100873.74;1473618;88;21396;-79
2024/02/20 01:53:22;;;;;;;34.83;23.17;;;;;;;5.57;100.00;100874.63;1470225;87;22336;-79
2024/02/20 01:55:49;;;;;;;39.43;25.50;;;;;;;5.60;100.00;100876.57;1474067;87;21464;-79
2024/02/20 01:58:16;;;;;;;38.67;23.27;;;;;;;5.65;100.00;100877.58;1463022;88;22417;-79
2024/02/20 02:00:43;;;;;;;35.20;23.87;;;;;;;5.66;100.00;100872.69;1473799;87;21464;-80
2024/02/20 02:03:11;;;;;;;40.17;27.17;;;;;;;5.68;100.00;100887.87;1472934;87;21404;-79
2024/02/20 02:05:38;;;;;;;40.40;28.40;;;;;;;5.66;100.00;100880.56;1475393;87;21559;-79
2024/02/20 02:08:09;;;;;;;49.60;28.47;;;;;;;5.71;100.00;100885.03;1480069;87;21684;-80
2024/02/20 02:10:35;;;;;;;36.13;25.77;;;;;;;5.77;100.00;100885.09;1483918;88;22557;-80
2024/02/20 02:13:02;;;;;;;42.37;27.37;;;;;;;5.80;100.00;100886.19;1485706;87;22016;-79
2024/02/20 02:15:28;;;;;;;43.83;25.77;;;;;;;5.83;100.00;100888.13;1481633;87;21470;-79
2024/02/20 02:17:55;;;;;;;36.10;24.33;;;;;;;5.89;100.00;100885.55;1479241;87;21635;-79
2024/02/20 02:20:22;;;;;;;43.40;26.47;;;;;;;5.93;100.00;100884.85;1481750;87;21492;-79
2024/02/20 02:22:50;;;;;;;46.23;29.53;;;;;;;5.95;100.00;100883.00;1481038;87;21455;-78
2024/02/20 02:25:17;;;;;;;42.53;26.30;;;;;;;5.98;100.00;100884.09;1480393;87;22082;-79
2024/02/20 02:27:44;;;;;;;46.33;28.70;;;;;;;6.00;100.00;100879.59;1481415;87;21403;-79
2024/02/20 02:30:12;;;;;;;41.57;27.60;;;;;;;6.03;100.00;100883.31;1483454;87;21419;-78
2024/02/20 02:32:40;;;;;;;42.40;24.67;;;;;;;6.05;100.00;100878.80;1484380;87;21686;-79
2024/02/20 02:35:09;;;;;;;33.87;23.10;;;;;;;6.10;100.00;100881.95;1482194;87;21456;-78
2024/02/20 02:37:36;;;;;;;35.67;23.13;;;;;;;6.14;100.00;100889.14;1427560;87;21456;-78
2024/02/20 02:40:05;;;;;;;30.10;20.70;;;;;;;6.13;100.00;100889.62;1467181;88;21471;-80
2024/02/20 02:42:32;;;;;;;29.43;20.73;;;;;;;6.15;100.00;100889.02;1411702;87;21412;-79
2024/02/20 02:44:59;;;;;;;34.77;22.77;;;;;;;6.14;100.00;100891.29;1486649;88;22358;-80
2024/02/20 02:47:26;;;;;;;35.67;23.10;;;;;;;6.07;100.00;100886.95;1480916;87;21426;-79
2024/02/20 02:49:53;;;;;;;32.87;21.47;;;;;;;6.07;100.00;100892.65;1483550;88;21381;-79
2024/02/20 02:52:21;;;;;;;32.07;22.37;;;;;;;6.07;100.00;100896.59;1468990;88;21440;-79
2024/02/20 02:54:49;;;;;;;31.17;21.40;;;;;;;6.14;100.00;100886.52;1480672;87;21508;-79
2024/02/20 02:57:16;;;;;;;34.33;23.53;;;;;;;6.12;100.00;100883.98;1486654;87;22314;-79
2024/02/20 02:59:43;;;;;;;33.47;20.97;;;;;;;6.11;100.00;100884.94;1487722;88;21448;-78
2024/02/20 03:02:12;;;;;;;33.20;22.17;;;;;;;6.08;100.00;100879.90;1484383;87;21492;-78
2024/02/20 03:04:39;;;;;;;34.37;23.70;;;;;;;6.04;100.00;100894.18;1482850;88;21672;-78
2024/02/20 03:07:06;;;;;;;33.33;22.37;;;;;;;6.01;100.00;100886.52;1495367;88;21486;-79
2024/02/20 03:09:34;;;;;;;34.07;23.37;;;;;;;6.06;100.00;100893.61;1476640;88;21522;-79
2024/02/20 03:12:01;;;;;;;33.77;22.90;;;;;;;6.13;100.00;100884.36;1482780;88;21574;-78
2024/02/20 03:14:28;;;;;;;36.57;22.70;;;;;;;6.14;100.00;100882.09;1463105;88;21555;-78
2024/02/20 03:16:55;;;;;;;32.50;21.17;;;;;;;6.15;100.00;100885.08;1479735;88;21610;-79
2024/02/20 03:19:22;;;;;;;35.03;22.77;;;;;;;6.19;100.00;100879.98;1482688;88;21448;-78
2024/02/20 03:21:49;;;;;;;30.57;21.53;;;;;;;6.21;100.00;100878.06;1478704;88;21679;-78
2024/02/20 03:24:16;;;;;;;32.03;21.97;;;;;;;6.18;100.00;100883.55;1480672;87;21573;-78
2024/02/20 03:26:43;;;;;;;32.27;23.67;;;;;;;6.09;100.00;100890.28;1478274;87;21556;-78
2024/02/20 03:29:11;;;;;;;38.10;25.53;;;;;;;6.03;100.00;100893.83;1481699;88;21588;-78
2024/02/20 03:31:38;;;;;;;38.70;26.83;;;;;;;5.97;100.00;100895.57;1468296;88;22439;-79
2024/02/20 03:34:06;;;;;;;38.17;26.30;;;;;;;5.93;100.00;100899.30;1476928;88;22402;-79
2024/02/20 03:36:34;;;;;;;40.20;27.10;;;;;;;5.88;100.00;100899.16;1479845;87;22454;-79
2024/02/20 03:39:02;;;;;;;40.77;26.97;;;;;;;5.84;100.00;100906.91;1478235;88;21463;-79
2024/02/20 03:41:29;;;;;;;42.10;27.60;;;;;;;5.74;100.00;100908.46;1480565;88;21551;-78
2024/02/20 03:43:56;;;;;;;38.87;26.77;;;;;;;5.59;100.00;100916.91;1478898;88;21969;-80
2024/02/20 03:46:23;;;;;;;41.57;27.00;;;;;;;5.53;100.00;100920.44;1478607;88;21522;-80
2024/02/20 03:48:50;;;;;;;44.17;26.33;;;;;;;5.51;100.00;100910.02;1480696;88;21715;-79
2024/02/20 03:51:18;;;;;;;42.90;27.80;;;;;;;5.51;100.00;100914.44;1480499;88;21515;-78
2024/02/20 03:53:45;;;;;;;38.93;27.90;;;;;;;5.46;100.00;100910.80;1479792;88;21500;-79
2024/02/20 03:56:13;;;;;;;47.53;28.13;;;;;;;5.42;100.00;100906.23;1481102;88;21951;-78
2024/02/20 03:58:40;;;;;;;40.57;29.00;;;;;;;5.38;100.00;100909.15;1476610;87;21537;-78
2024/02/20 04:01:07;;;;;;;43.90;28.83;;;;;;;5.33;100.00;100914.72;1477704;88;22414;-79
2024/02/20 04:03:34;;;;;;;47.70;31.03;;;;;;;5.28;100.00;100915.49;1481118;88;21419;-78
2024/02/20 04:06:01;;;;;;;46.27;29.97;;;;;;;5.24;100.00;100916.65;1481584;88;21389;-79
2024/02/20 04:08:28;;;;;;;45.77;30.97;;;;;;;5.22;100.00;100920.31;1475484;88;21687;-79
2024/02/20 04:10:56;;;;;;;45.97;30.30;;;;;;;5.18;100.00;100924.45;1482597;87;21641;-78
2024/02/20 04:13:25;;;;;;;51.97;33.07;;;;;;;5.13;100.00;100923.91;1483242;87;21650;-78
2024/02/20 04:15:53;;;;;;;54.97;34.13;;;;;;;5.09;100.00;100934.69;1482081;87;22460;-78
2024/02/20 04:18:20;;;;;;;73.57;36.33;;;;;;;4.95;100.00;100932.98;1480422;87;22470;-78
2024/02/20 04:20:47;;;;;;;63.77;39.40;;;;;;;4.83;100.00;100931.13;1489658;88;21485;-79
2024/02/20 04:23:14;;;;;;;61.70;40.37;;;;;;;4.73;100.00;100930.89;1485631;87;21462;-79
2024/02/20 04:25:43;;;;;;;68.77;41.10;;;;;;;4.69;100.00;100934.63;1482109;88;21514;-79
2024/02/20 04:28:10;;;;;;;63.03;37.77;;;;;;;4.65;100.00;100937.09;1480491;87;22334;-79
2024/02/20 04:30:39;;;;;;;61.63;38.47;;;;;;;4.55;100.00;100935.52;1483952;87;21753;-77
2024/02/20 04:33:06;;;;;;;68.73;42.80;;;;;;;4.47;100.00;100939.09;1483445;87;21590;-77
2024/02/20 04:35:33;;;;;;;69.90;42.80;;;;;;;4.44;100.00;100945.36;1482142;87;21731;-77
2024/02/20 04:38:00;;;;;;;68.77;40.93;;;;;;;4.46;100.00;100944.80;1484378;87;21432;-77
2024/02/20 04:40:27;;;;;;;67.13;42.10;;;;;;;4.44;100.00;100941.43;1493002;87;21463;-77
2024/02/20 04:42:54;;;;;;;71.40;41.47;;;;;;;4.43;100.00;100942.37;1484122;88;22908;-77
2024/02/20 04:45:21;;;;;;;76.70;42.87;;;;;;;4.43;100.00;100949.37;1489573;87;21523;-77
2024/02/20 04:47:48;;;;;;;75.73;45.90;;;;;;;4.41;100.00;100948.17;1481283;87;21382;-77
2024/02/20 04:50:19;;;;;;;80.97;44.93;;;;;;;4.43;100.00;100955.92;1481848;88;21493;-77
2024/02/20 04:52:46;;;;;;;83.55;47.80;;;;;;;4.44;100.00;100954.53;1478624;87;22387;-77
2024/02/20 04:55:13;;;;;;;85.77;48.23;;;;;;;4.40;100.00;100943.88;1472414;88;21367;-78
2024/02/20 04:57:40;;;;;;;91.30;50.80;;;;;;;4.43;100.00;100950.24;1484578;87;21593;-77
2024/02/20 05:00:10;;;;;;;87.53;49.03;;;;;;;4.41;100.00;100952.11;1471565;88;21388;-80
2024/02/20 05:02:38;;;;;;;83.27;44.40;;;;;;;4.43;100.00;100962.03;1445883;88;21544;-79
2024/02/20 05:05:06;;;;;;;87.37;48.37;;;;;;;4.38;100.00;100960.16;1481613;87;22409;-79
2024/02/20 05:07:34;;;;;;;82.73;48.40;;;;;;;4.37;100.00;100950.59;1483328;87;21634;-79
2024/02/20 05:10:01;;;;;;;87.43;47.27;;;;;;;4.34;100.00;100956.03;1477007;88;22335;-79
2024/02/20 05:12:28;;;;;;;82.03;46.83;;;;;;;4.32;100.00;100960.55;1475131;87;21456;-79
2024/02/20 05:14:55;;;;;;;81.10;45.80;;;;;;;4.29;100.00;100959.42;1471829;88;21501;-79
2024/02/20 05:17:22;;;;;;;91.53;49.13;;;;;;;4.27;100.00;100962.59;1470240;87;22357;-79
2024/02/20 05:19:49;;;;;;;85.03;48.00;;;;;;;4.27;100.00;100957.36;1475042;87;21493;-79
2024/02/20 05:22:17;;;;;;;90.97;47.60;;;;;;;4.29;100.00;100960.73;1472431;87;21551;-79
2024/02/20 05:24:44;;;;;;;96.00;50.40;;;;;;;4.28;100.00;100960.34;1476367;87;21486;-80
2024/02/20 05:27:12;;;;;;;81.63;45.77;;;;;;;4.31;100.00;100961.46;1474613;87;21515;-79
2024/02/20 05:29:39;;;;;;;94.07;51.80;;;;;;;4.33;100.00;100964.84;1467519;87;21449;-78
2024/02/20 05:32:06;;;;;;;86.93;45.70;;;;;;;4.33;100.00;100967.45;1466746;88;21922;-79
2024/02/20 05:34:33;;;;;;;84.27;47.07;;;;;;;4.31;100.00;100962.77;1469510;88;21441;-79
2024/02/20 05:37:00;;;;;;;88.60;46.93;;;;;;;4.33;100.00;100962.22;1471615;87;21463;-79
2024/02/20 05:39:27;;;;;;;83.43;47.87;;;;;;;4.34;100.00;100965.20;1479472;87;21420;-79
2024/02/20 05:41:56;;;;;;;78.63;43.83;;;;;;;4.33;100.00;100970.08;1481832;88;21463;-80
2024/02/20 05:44:23;;;;;;;83.87;45.40;;;;;;;4.33;100.00;100975.31;1469116;87;21413;-79
2024/02/20 05:46:50;;;;;;;89.00;48.93;;;;;;;4.32;100.00;100974.12;1476093;87;22380;-79
2024/02/20 05:49:17;;;;;;;88.20;46.90;;;;;;;4.33;100.00;100977.10;1462955;88;21551;-80
2024/02/20 05:51:46;;;;;;;92.60;49.13;;;;;;;4.35;100.00;100982.63;1471636;87;21661;-80
2024/02/20 05:54:14;;;;;;;88.33;47.33;;;;;;;4.36;100.00;100982.16;1466844;87;21412;-79
2024/02/20 05:56:43;;;;;;;92.90;45.87;;;;;;;4.35;100.00;100978.70;1476706;87;21449;-80
2024/02/20 05:59:10;;;;;;;89.70;50.03;;;;;;;4.36;100.00;100982.98;1480439;87;21463;-80
2024/02/20 06:01:37;;;;;;;84.33;46.00;;;;;;;4.37;100.00;100989.91;1470945;87;21427;-79
2024/02/20 06:04:04;;;;;;;90.37;47.03;;;;;;;4.38;100.00;100986.37;1472946;87;21441;-80
2024/02/20 06:06:33;;;;;;;81.13;44.80;;;;;;;4.39;100.00;100993.28;1469126;87;21537;-80
2024/02/20 06:09:01;;;;;;;89.80;43.47;;;;;;;4.38;100.00;101002.09;1476323;88;21620;-80
2024/02/20 06:11:28;;;;;;;83.73;44.27;;;;;;;4.32;100.00;100997.70;1482136;87;21507;-80
2024/02/20 06:13:55;;;;;;;91.07;47.27;;;;;;;4.27;100.00;101001.91;1488366;87;21455;-79
2024/02/20 06:16:25;;;;;;;93.30;48.87;;;;;;;4.23;100.00;101007.80;1483659;87;21528;-80
2024/02/20 06:18:53;;;;;;;90.33;47.83;;;;;;;4.26;100.00;101014.64;1467664;88;21651;-80
2024/02/20 06:21:21;;;;;;;84.30;44.63;;;;;;;4.30;100.00;101013.03;1471516;87;21515;-80
2024/02/20 06:23:49;;;;;;;91.20;47.47;;;;;;;4.35;100.00;101015.86;1481754;87;21635;-79
2024/02/20 06:26:22;;;;;;;87.23;46.57;;;;;;;4.32;100.00;101020.81;1485268;87;21536;-80
2024/02/20 06:28:46;;;;;;;82.93;44.13;;;;;;;4.29;100.00;101018.38;1479646;87;21492;-79
2024/02/20 06:31:13;;;;;;;78.47;43.17;;;;;;;4.32;100.00;101013.42;1481684;88;22394;-80
2024/02/20 06:33:44;;;;;;;80.13;42.47;;;;;;;4.33;100.00;101014.62;1479896;87;21470;-80
2024/02/20 06:36:11;;;;;;;75.32;41.33;;;;;;;4.36;100.00;101014.91;1480749;87;21433;-80
2024/02/20 06:38:38;;;;;;;77.57;42.50;;;;;;;4.38;100.00;101017.81;1487317;87;21419;-79
2024/02/20 06:41:05;;;;;;;84.40;43.40;;;;;;;4.42;100.00;101022.40;1483059;87;21558;-79
2024/02/20 06:43:37;;;;;;;81.17;41.83;;;;;;;4.41;100.00;101021.56;1477284;87;21389;-79
2024/02/20 06:46:05;;;;;;;83.70;41.37;;;;;;;4.38;100.00;101025.69;1486145;87;21462;-79
2024/02/20 06:48:32;;;;;;;82.70;45.00;;;;;;;4.31;100.00;101033.52;1483443;88;21674;-79
2024/02/20 06:50:59;;;;;;;81.13;44.87;;;;;;;4.35;100.00;101033.73;1481463;88;21522;-77
2024/02/20 06:53:29;;;;;;;88.83;43.50;;;;;;;4.43;100.00;101034.55;1483497;87;21382;-80
2024/02/20 06:55:56;;;;;;;88.37;44.57;;;;;;;4.48;100.00;101039.89;1485437;88;22386;-80
2024/02/20 06:58:23;;;;;;;91.07;45.07;;;;;;;4.54;100.00;101036.05;1473362;88;21470;-80
2024/02/20 07:00:50;;;;;;;82.73;42.57;;;;;;;4.58;100.00;101043.29;1484389;88;21477;-80
2024/02/20 07:03:17;;;;;;;85.27;46.77;;;;;;;4.55;100.00;101040.39;1485652;87;22446;-79
2024/02/20 07:05:44;;;;;;;103.40;44.57;;;;;;;4.57;100.00;101039.80;1491736;87;21440;-80
2024/02/20 07:08:11;;;;;;;108.10;49.93;;;;;;;4.59;100.00;101051.05;1482116;87;21551;-80
2024/02/20 07:10:39;;;;;;;76.27;44.93;;;;;;;4.62;100.00;101046.09;1468754;87;21507;-78
2024/02/20 07:13:06;;;;;;;90.77;45.23;;;;;;;4.65;100.00;101050.66;1474947;87;21471;-79
2024/02/20 07:15:33;;;;;;;83.50;45.70;;;;;;;4.68;100.00;101052.26;1472178;88;21412;-79
2024/02/20 07:18:01;;;;;;;86.37;41.67;;;;;;;4.71;100.00;101053.38;1469474;87;21529;-79
2024/02/20 07:20:27;;;;;;;77.83;41.33;;;;;;;4.72;100.00;101055.09;1465700;87;22379;-79
2024/02/20 07:22:55;;;;;;;72.87;42.57;;;;;;;4.74;100.00;101057.13;1472220;87;21449;-79
2024/02/20 07:25:22;;;;;;;83.93;40.80;;;;;;;4.76;100.00;101065.75;1470546;88;21560;-79
2024/02/20 07:27:50;;;;;;;86.80;41.77;;;;;;;4.82;100.00;101068.46;1467672;88;21426;-78
2024/02/20 07:30:17;;;;;;;93.30;42.53;;;;;;;4.86;100.00;101069.50;1476025;87;22817;-79
2024/02/20 07:32:45;;;;;;;80.40;42.80;;;;;;;4.85;100.00;101079.59;1474182;87;21397;-79
2024/02/20 07:35:14;;;;;;;100.23;41.53;;;;;;;4.86;100.00;101078.68;1473911;87;21537;-78
2024/02/20 07:37:41;;;;;;;74.73;41.67;;;;;;;4.90;100.00;101080.64;1468411;88;21558;-79
2024/02/20 07:40:10;;;;;;;78.43;41.33;;;;;;;4.94;100.00;101076.39;1474702;87;21465;-79
2024/02/20 07:42:39;;;;;;;80.53;42.27;;;;;;;4.99;100.00;101073.50;1396328;87;22211;-77
2024/02/20 07:45:06;;;;;;;70.83;39.70;;;;;;;5.04;100.00;101079.78;1390649;89;22182;-80
2024/02/20 07:47:37;;;;;;;86.77;42.97;;;;;;;5.07;100.00;101078.28;1398166;87;21509;-78
2024/02/20 07:50:05;;;;;;;77.17;40.12;;;;;;;5.07;100.00;101086.15;1400709;88;21361;-79
2024/02/20 07:52:32;;;;;;;76.60;43.67;;;;;;;5.12;100.00;101081.43;1397235;87;22271;-79
2024/02/20 07:54:59;;;;;;;79.03;43.77;;;;;;;5.19;100.00;101089.30;1398632;87;21361;-80
2024/02/20 07:57:26;;;;;;;96.77;45.03;;;;;;;5.27;100.00;101085.73;1399200;87;21427;-78
2024/02/20 07:59:54;;;;;;;87.67;45.20;;;;;;;5.34;100.00;101086.17;1546066;88;21420;-78
2024/02/20 08:02:21;;;;;;;80.27;41.43;;;;;;;5.42;100.00;101087.37;1398846;87;21332;-78
2024/02/20 08:04:48;;;;;;;83.67;42.50;;;;;;;5.54;100.00;101086.20;1398820;87;21258;-79
2024/02/20 08:07:15;;;;;;;81.27;42.57;;;;;;;5.62;100.00;101086.56;1398583;87;21250;-79
2024/02/20 08:09:42;;;;;;;84.53;42.63;;;;;;;5.70;100.00;101084.28;1405036;88;21339;-78
2024/02/20 08:12:09;;;;;;;76.37;41.20;;;;;;;5.75;100.00;101077.39;1398679;87;21287;-78
2024/02/20 08:14:36;;;;;;;73.23;40.00;;;;;;;5.78;100.00;101081.13;1398543;87;21228;-79
2024/02/20 08:17:04;;;;;;;69.97;40.57;;;;;;;5.77;100.00;101086.86;1398639;87;21199;-79
2024/02/20 08:19:31;;;;;;;75.43;40.73;;;;;;;5.78;100.00;101085.94;1397693;88;21402;-79
2024/02/20 08:21:58;;;;;;;68.40;41.80;;;;;;;5.83;100.00;101089.08;1450107;87;22115;-79
2024/02/20 08:24:25;;;;;;;82.20;41.87;;;;;;;5.88;100.00;101095.36;1398679;87;21458;-78
2024/02/20 08:26:54;;;;;;;76.20;42.37;;;;;;;5.88;100.00;101096.20;1398535;87;21265;-78
2024/02/20 08:29:21;;;;;;;72.93;39.83;;;;;;;5.87;100.00;101089.27;1556832;87;21368;-79
2024/02/20 08:31:48;;;;;;;74.23;41.83;;;;;;;5.88;100.00;101090.95;1398531;87;21295;-79
2024/02/20 08:34:15;;;;;;;80.37;44.20;;;;;;;5.88;100.00;101088.31;1399082;87;21236;-80
2024/02/20 08:36:42;;;;;;;77.03;42.93;;;;;;;5.88;100.00;101081.75;1398830;88;21236;-79
2024/02/20 08:39:09;;;;;;;79.73;46.30;;;;;;;5.93;100.00;101088.47;1398792;87;21228;-79
2024/02/20 08:41:36;;;;;;;96.87;49.73;;;;;;;6.00;100.00;101089.80;1398749;87;21361;-79
2024/02/20 08:44:04;;;;;;;83.00;44.17;;;;;;;6.07;100.00;101090.61;1398625;87;21250;-80
2024/02/20 08:46:36;;;;;;;77.03;44.23;;;;;;;6.15;100.00;101088.77;1398922;87;21480;-79
2024/02/20 08:49:03;;;;;;;81.87;45.17;;;;;;;6.23;100.00;101093.03;1389038;89;21331;-79
2024/02/20 08:51:30;;;;;;;75.90;43.73;;;;;;;6.28;100.00;101091.42;1399107;87;21235;-80
2024/02/20 08:53:58;;;;;;;71.17;40.93;;;;;;;6.35;100.00;101097.94;1398909;87;21310;-77
2024/02/20 08:56:26;;;;;;;69.90;42.10;;;;;;;6.42;100.00;101093.12;1405001;87;21281;-78
2024/02/20 08:58:53;;;;;;;77.60;42.67;;;;;;;6.52;100.00;101098.11;1397375;88;21302;-79
2024/02/20 09:01:24;;;;;;;74.97;40.13;;;;;;;6.51;100.00;101103.01;1398983;87;21360;-79
2024/02/20 09:03:49;;;;;;;73.23;43.70;;;;;;;6.57;100.00;101102.58;1396424;87;21300;-79
2024/02/20 09:06:17;;;;;;;74.70;41.50;;;;;;;6.65;100.00;101104.22;1398963;87;22174;-80
2024/02/20 09:08:44;;;;;;;84.17;48.37;;;;;;;6.64;100.00;101107.78;1534489;87;21449;-79
2024/02/20 09:11:13;;;;;;;79.20;41.93;;;;;;;6.68;100.00;101113.21;1569972;88;21258;-79
2024/02/20 09:13:40;;;;;;;68.97;42.27;;;;;;;6.71;100.00;101120.89;1410495;87;21327;-79
2024/02/20 09:16:07;;;;;;;70.53;42.97;;;;;;;6.76;100.00;101126.69;1407295;88;21243;-79
2024/02/20 09:18:35;;;;;;;72.00;42.67;;;;;;;6.77;100.00;101124.41;1407155;87;21287;-80
2024/02/20 09:21:04;;;;;;;71.07;42.50;;;;;;;6.75;100.00;101121.03;1406732;87;22328;-78
2024/02/20 09:23:36;;;;;;;63.43;40.33;;;;;;;6.73;100.00;101112.88;1411621;87;22084;-79
2024/02/20 09:26:00;;;;;;;63.97;37.53;;;;;;;6.77;100.00;101115.69;1405919;87;22196;-79
2024/02/20 09:28:27;;;;;;;61.20;38.87;;;;;;;6.80;100.00;101113.31;1407645;87;21482;-79
2024/02/20 09:30:54;;;;;;;63.67;37.50;;;;;;;6.86;100.00;101116.83;1407503;87;21316;-79
2024/02/20 09:33:21;;;;;;;61.07;37.10;;;;;;;6.93;100.00;101112.36;1407357;87;21235;-80
2024/02/20 09:35:49;;;;;;;96.30;57.30;;;;;;;7.00;100.00;101112.28;1407200;87;21242;-78
2024/02/20 09:38:16;;;;;;;165.93;104.17;;;;;;;7.10;100.00;101116.41;1407286;87;21324;-79
2024/02/20 09:40:43;;;;;;;89.13;56.43;;;;;;;7.13;100.00;101108.30;1407466;87;21316;-80
2024/02/20 09:43:12;;;;;;;63.70;42.23;;;;;;;7.20;100.00;101113.50;1407233;87;21255;-78
2024/02/20 09:45:43;;;;;;;58.60;39.67;;;;;;;7.28;100.00;101114.73;1567856;88;21316;-78
2024/02/20 09:48:12;;;;;;;53.68;33.15;;;;;;;7.31;100.00;101117.15;1402989;87;21250;-80
2024/02/20 09:50:41;;;;;;;51.67;34.37;;;;;;;7.27;100.00;101117.02;1567535;88;21279;-81
2024/02/20 09:53:10;;;;;;;51.70;33.60;;;;;;;7.27;100.00;101120.48;1418018;87;21390;-79
2024/02/20 09:55:38;;;;;;;48.27;32.53;;;;;;;7.27;100.00;101120.48;1405188;87;21405;-81
2024/02/20 09:58:05;;;;;;;46.10;32.07;;;;;;;7.24;100.00;101120.22;1406942;88;21205;-80
2024/02/20 10:00:32;;;;;;;45.47;28.87;;;;;;;7.19;100.00;101114.92;1406782;87;21257;-81
2024/02/20 10:03:01;;;;;;;43.90;30.13;;;;;;;7.25;100.00;101121.09;1407408;87;22173;-81
2024/02/20 10:05:30;;;;;;;47.30;30.43;;;;;;;7.36;100.00;101121.14;1404889;87;21308;-78
2024/02/20 10:08:00;;;;;;;40.77;26.33;;;;;;;7.50;100.00;101121.95;1405018;87;21213;-80
2024/02/20 10:10:28;;;;;;;39.10;25.90;;;;;;;7.61;100.00;101118.06;1409682;87;22262;-79
2024/02/20 10:13:00;;;;;;;36.73;24.67;;;;;;;7.77;100.00;101109.86;1406714;87;21242;-81
2024/02/20 10:15:29;;;;;;;37.10;26.63;;;;;;;7.94;100.00;101108.63;1410854;87;21323;-81
2024/02/20 10:17:59;;;;;;;36.13;23.70;;;;;;;8.16;100.00;101110.51;1406245;87;21264;-80
2024/02/20 10:20:28;;;;;;;32.95;23.77;;;;;;;8.35;100.00;101106.85;1403008;88;21309;-79
2024/02/20 10:23:07;;;;;;;33.47;24.07;;;;;;;8.55;100.00;101103.56;1405343;87;22167;-80
2024/02/20 10:25:36;;;;;;;32.33;22.20;;;;;;;8.79;100.00;101099.97;1409986;87;21406;-80
2024/02/20 10:28:07;;;;;;;29.47;21.30;;;;;;;9.18;100.00;101096.48;1569810;88;21213;-80
2024/02/20 10:30:35;;;;;;;27.83;20.33;;;;;;;9.40;100.00;101089.81;1479247;87;21368;-81
2024/02/20 10:33:02;;;;;;;26.90;19.47;;;;;;;9.82;100.00;101096.55;1484905;87;21345;-80
2024/02/20 10:35:29;;;;;;;27.03;19.93;;;;;;;10.04;100.00;101092.11;1482239;87;21449;-81
2024/02/20 10:38:04;;;;;;;29.83;21.00;;;;;;;10.22;100.00;101090.59;1490571;87;21352;-80
2024/02/20 10:40:32;;;;;;;27.80;20.50;;;;;;;10.36;100.00;101083.67;1405048;87;21316;-80
2024/02/20 10:43:00;;;;;;;25.07;19.20;;;;;;;10.33;100.00;101083.10;1407032;88;21256;-80
2024/02/20 10:45:27;;;;;;;31.03;21.00;;;;;;;10.34;100.00;101084.28;1405846;87;21235;-80
2024/02/20 10:47:56;;;;;;;27.03;18.93;;;;;;;10.33;100.00;101077.33;1408451;87;21301;-81
2024/02/20 10:50:24;;;;;;;26.50;19.63;;;;;;;10.45;100.00;101074.61;1405018;87;21286;-80
2024/02/20 10:52:59;;;;;;;29.33;21.33;;;;;;;10.63;100.00;101073.02;1406795;88;21250;-80
2024/02/20 10:55:24;;;;;;;33.13;21.97;;;;;;;10.76;100.00;101070.13;1404615;88;21506;-80
2024/02/20 10:57:52;;;;;;;32.73;21.90;;;;;;;11.02;100.00;101063.91;1413373;88;21265;-80
2024/02/20 11:00:19;;;;;;;29.83;20.80;;;;;;;11.19;100.00;101067.70;1406253;88;21249;-79
2024/02/20 11:02:48;;;;;;;28.50;21.03;;;;;;;11.17;100.00;101063.87;1413473;87;22342;-78
2024/02/20 11:05:19;;;;;;;40.30;21.20;;;;;;;11.05;100.00;101067.61;1419510;87;21396;-80
2024/02/20 11:07:46;;;;;;;;;;;;;;;10.94;100.00;101064.58;1405755;87;22313;-78
2024/02/20 11:10:20;;;;;;;32.03;21.47;;;;;;;10.84;100.00;101060.55;1416413;87;20252;-80